sensor_id;sensor_type;location;lat;lon;timestamp;P1;durP1;ratioP1;P2;durP2;ratioP2
74196;SDS011;62555;52.678;4.900;2023-05-10T00:00:50;0.90;;;0.90;;
74196;SDS011;62555;52.678;4.900;2023-05-10T00:03:15;0.93;;;0.90;;
74196;SDS011;62555;52.678;4.900;2023-05-10T00:05:41;1.00;;;0.90;;
74196;SDS011;62555;52.678;4.900;2023-05-10T00:08:06;0.80;;;0.80;;
74196;SDS011;62555;52.678;4.900;2023-05-10T00:10:31;0.80;;;0.80;;
74196;SDS011;62555;52.678;4.900;2023-05-10T00:12:56;0.90;;;0.80;;
74196;SDS011;62555;52.678;4.900;2023-05-10T00:15:21;0.80;;;0.80;;
74196;SDS011;62555;52.678;4.900;2023-05-10T00:17:46;0.80;;;0.80;;
74196;SDS011;62555;52.678;4.900;2023-05-10T00:20:12;1.03;;;0.70;;
74196;SDS011;62555;52.678;4.900;2023-05-10T00:22:37;0.70;;;0.70;;
74196;SDS011;62555;52.678;4.900;2023-05-10T00:25:02;0.77;;;0.77;;
74196;SDS011;62555;52.678;4.900;2023-05-10T00:27:27;0.90;;;0.90;;
74196;SDS011;62555;52.678;4.900;2023-05-10T00:29:52;0.80;;;0.80;;
74196;SDS011;62555;52.678;4.900;2023-05-10T00:32:18;1.03;;;0.83;;
74196;SDS011;62555;52.678;4.900;2023-05-10T00:34:43;1.07;;;1.00;;
74196;SDS011;62555;52.678;4.900;2023-05-10T00:37:08;0.87;;;0.80;;
74196;SDS011;62555;52.678;4.900;2023-05-10T00:39:33;1.17;;;1.07;;
74196;SDS011;62555;52.678;4.900;2023-05-10T00:41:58;1.00;;;0.90;;
74196;SDS011;62555;52.678;4.900;2023-05-10T00:44:25;1.02;;;0.70;;
74196;SDS011;62555;52.678;4.900;2023-05-10T00:46:50;1.63;;;0.93;;
74196;SDS011;62555;52.678;4.900;2023-05-10T00:49:15;0.70;;;0.70;;
74196;SDS011;62555;52.678;4.900;2023-05-10T00:51:41;0.90;;;0.77;;
74196;SDS011;62555;52.678;4.900;2023-05-10T00:54:07;1.02;;;0.95;;
74196;SDS011;62555;52.678;4.900;2023-05-10T00:56:33;0.80;;;0.80;;
74196;SDS011;62555;52.678;4.900;2023-05-10T00:58:58;0.70;;;0.70;;
74196;SDS011;62555;52.678;4.900;2023-05-10T01:01:24;0.98;;;0.80;;
74196;SDS011;62555;52.678;4.900;2023-05-10T01:03:49;0.60;;;0.60;;
74196;SDS011;62555;52.678;4.900;2023-05-10T01:06:14;1.03;;;0.77;;
74196;SDS011;62555;52.678;4.900;2023-05-10T01:08:40;0.80;;;0.80;;
74196;SDS011;62555;52.678;4.900;2023-05-10T01:11:05;1.20;;;0.90;;
74196;SDS011;62555;52.678;4.900;2023-05-10T01:13:33;1.00;;;0.80;;
74196;SDS011;62555;52.678;4.900;2023-05-10T01:15:58;1.00;;;0.90;;
74196;SDS011;62555;52.678;4.900;2023-05-10T01:18:24;0.90;;;0.60;;
74196;SDS011;62555;52.678;4.900;2023-05-10T01:20:53;0.75;;;0.73;;
74196;SDS011;62555;52.678;4.900;2023-05-10T01:23:31;0.93;;;0.88;;
74196;SDS011;62555;52.678;4.900;2023-05-10T01:26:18;0.93;;;0.60;;
74196;SDS011;62555;52.678;4.900;2023-05-10T01:28:58;0.90;;;0.80;;
74196;SDS011;62555;52.678;4.900;2023-05-10T01:36:44;1.33;;;0.75;;
74196;SDS011;62555;52.678;4.900;2023-05-10T01:39:28;1.02;;;0.95;;
74196;SDS011;62555;52.678;4.900;2023-05-10T01:47:10;0.80;;;0.80;;
74196;SDS011;62555;52.678;4.900;2023-05-10T01:49:43;0.90;;;0.77;;
74196;SDS011;62555;52.678;4.900;2023-05-10T01:52:10;1.00;;;0.70;;
74196;SDS011;62555;52.678;4.900;2023-05-10T01:57:03;1.13;;;0.80;;
74196;SDS011;62555;52.678;4.900;2023-05-10T01:59:30;1.35;;;0.80;;
74196;SDS011;62555;52.678;4.900;2023-05-10T02:01:58;1.02;;;0.70;;
74196;SDS011;62555;52.678;4.900;2023-05-10T02:04:24;0.80;;;0.80;;
74196;SDS011;62555;52.678;4.900;2023-05-10T02:06:50;1.15;;;0.70;;
74196;SDS011;62555;52.678;4.900;2023-05-10T02:09:16;0.70;;;0.70;;
74196;SDS011;62555;52.678;4.900;2023-05-10T02:11:42;0.70;;;0.60;;
74196;SDS011;62555;52.678;4.900;2023-05-10T02:14:07;2.63;;;0.80;;
74196;SDS011;62555;52.678;4.900;2023-05-10T02:16:34;0.70;;;0.70;;
74196;SDS011;62555;52.678;4.900;2023-05-10T02:19:00;1.15;;;0.70;;
74196;SDS011;62555;52.678;4.900;2023-05-10T02:21:26;1.38;;;0.95;;
74196;SDS011;62555;52.678;4.900;2023-05-10T02:23:52;1.50;;;0.95;;
74196;SDS011;62555;52.678;4.900;2023-05-10T02:26:19;1.13;;;0.88;;
74196;SDS011;62555;52.678;4.900;2023-05-10T02:28:45;1.30;;;1.20;;
74196;SDS011;62555;52.678;4.900;2023-05-10T02:31:11;2.13;;;1.00;;
74196;SDS011;62555;52.678;4.900;2023-05-10T02:33:37;1.13;;;1.02;;
74196;SDS011;62555;52.678;4.900;2023-05-10T02:36:03;1.10;;;1.00;;
74196;SDS011;62555;52.678;4.900;2023-05-10T02:38:30;1.50;;;1.00;;
74196;SDS011;62555;52.678;4.900;2023-05-10T02:40:56;1.60;;;0.95;;
74196;SDS011;62555;52.678;4.900;2023-05-10T02:43:22;1.00;;;0.90;;
74196;SDS011;62555;52.678;4.900;2023-05-10T02:45:48;1.20;;;1.10;;
74196;SDS011;62555;52.678;4.900;2023-05-10T02:48:13;1.30;;;1.00;;
74196;SDS011;62555;52.678;4.900;2023-05-10T02:50:38;1.00;;;0.90;;
74196;SDS011;62555;52.678;4.900;2023-05-10T02:53:13;1.13;;;0.93;;
74196;SDS011;62555;52.678;4.900;2023-05-10T02:55:40;1.50;;;1.02;;
74196;SDS011;62555;52.678;4.900;2023-05-10T02:58:05;1.63;;;1.00;;
74196;SDS011;62555;52.678;4.900;2023-05-10T03:00:31;1.40;;;1.10;;
74196;SDS011;62555;52.678;4.900;2023-05-10T03:02:56;1.70;;;1.05;;
74196;SDS011;62555;52.678;4.900;2023-05-10T03:05:21;1.23;;;1.10;;
74196;SDS011;62555;52.678;4.900;2023-05-10T03:07:46;1.30;;;0.90;;
74196;SDS011;62555;52.678;4.900;2023-05-10T03:10:12;1.45;;;1.10;;
74196;SDS011;62555;52.678;4.900;2023-05-10T03:12:50;0.90;;;0.80;;
74196;SDS011;62555;52.678;4.900;2023-05-10T03:15:19;1.65;;;0.93;;
74196;SDS011;62555;52.678;4.900;2023-05-10T03:20:12;1.20;;;1.00;;
74196;SDS011;62555;52.678;4.900;2023-05-10T03:22:44;1.85;;;1.27;;
74196;SDS011;62555;52.678;4.900;2023-05-10T03:25:10;1.42;;;1.02;;
74196;SDS011;62555;52.678;4.900;2023-05-10T03:27:37;1.38;;;1.13;;
74196;SDS011;62555;52.678;4.900;2023-05-10T03:30:04;1.30;;;1.10;;
74196;SDS011;62555;52.678;4.900;2023-05-10T03:32:29;1.23;;;0.88;;
74196;SDS011;62555;52.678;4.900;2023-05-10T03:34:56;1.45;;;0.90;;
74196;SDS011;62555;52.678;4.900;2023-05-10T03:37:22;1.20;;;1.00;;
74196;SDS011;62555;52.678;4.900;2023-05-10T03:39:48;2.05;;;1.20;;
74196;SDS011;62555;52.678;4.900;2023-05-10T03:42:13;1.63;;;0.90;;
74196;SDS011;62555;52.678;4.900;2023-05-10T03:44:38;1.00;;;0.80;;
74196;SDS011;62555;52.678;4.900;2023-05-10T03:47:04;1.08;;;0.98;;
74196;SDS011;62555;52.678;4.900;2023-05-10T03:49:29;0.90;;;0.73;;
74196;SDS011;62555;52.678;4.900;2023-05-10T03:51:54;1.23;;;1.13;;
74196;SDS011;62555;52.678;4.900;2023-05-10T03:54:19;1.67;;;1.00;;
74196;SDS011;62555;52.678;4.900;2023-05-10T03:56:45;1.70;;;1.27;;
74196;SDS011;62555;52.678;4.900;2023-05-10T03:59:12;1.80;;;1.10;;
74196;SDS011;62555;52.678;4.900;2023-05-10T04:01:37;1.20;;;0.90;;
74196;SDS011;62555;52.678;4.900;2023-05-10T04:04:03;1.33;;;1.03;;
74196;SDS011;62555;52.678;4.900;2023-05-10T04:06:28;1.70;;;1.23;;
74196;SDS011;62555;52.678;4.900;2023-05-10T04:08:53;1.23;;;1.13;;
74196;SDS011;62555;52.678;4.900;2023-05-10T04:11:18;1.83;;;1.10;;
74196;SDS011;62555;52.678;4.900;2023-05-10T04:13:43;1.00;;;0.90;;
74196;SDS011;62555;52.678;4.900;2023-05-10T04:16:09;1.57;;;1.47;;
74196;SDS011;62555;52.678;4.900;2023-05-10T04:18:34;1.57;;;1.00;;
74196;SDS011;62555;52.678;4.900;2023-05-10T04:20:59;1.73;;;1.10;;
74196;SDS011;62555;52.678;4.900;2023-05-10T04:23:24;1.20;;;1.10;;
74196;SDS011;62555;52.678;4.900;2023-05-10T04:25:50;1.10;;;1.00;;
74196;SDS011;62555;52.678;4.900;2023-05-10T04:28:15;1.47;;;1.10;;
74196;SDS011;62555;52.678;4.900;2023-05-10T04:30:40;1.20;;;0.90;;
74196;SDS011;62555;52.678;4.900;2023-05-10T04:33:05;0.97;;;0.80;;
74196;SDS011;62555;52.678;4.900;2023-05-10T04:35:30;1.10;;;1.00;;
74196;SDS011;62555;52.678;4.900;2023-05-10T04:37:56;1.77;;;0.97;;
74196;SDS011;62555;52.678;4.900;2023-05-10T04:40:21;1.53;;;1.20;;
74196;SDS011;62555;52.678;4.900;2023-05-10T04:42:46;1.13;;;0.87;;
74196;SDS011;62555;52.678;4.900;2023-05-10T04:45:11;1.13;;;0.90;;
74196;SDS011;62555;52.678;4.900;2023-05-10T04:47:36;2.45;;;1.60;;
74196;SDS011;62555;52.678;4.900;2023-05-10T04:50:02;1.20;;;0.85;;
74196;SDS011;62555;52.678;4.900;2023-05-10T04:52:27;1.50;;;0.93;;
74196;SDS011;62555;52.678;4.900;2023-05-10T04:54:52;1.40;;;1.03;;
74196;SDS011;62555;52.678;4.900;2023-05-10T04:57:18;1.53;;;1.10;;
74196;SDS011;62555;52.678;4.900;2023-05-10T04:59:43;1.57;;;1.10;;
74196;SDS011;62555;52.678;4.900;2023-05-10T05:02:08;1.60;;;1.37;;
74196;SDS011;62555;52.678;4.900;2023-05-10T05:04:33;2.70;;;1.30;;
74196;SDS011;62555;52.678;4.900;2023-05-10T05:06:59;1.92;;;1.23;;
74196;SDS011;62555;52.678;4.900;2023-05-10T05:09:24;1.42;;;1.00;;
74196;SDS011;62555;52.678;4.900;2023-05-10T05:11:49;1.73;;;1.10;;
74196;SDS011;62555;52.678;4.900;2023-05-10T05:14:14;1.33;;;1.10;;
74196;SDS011;62555;52.678;4.900;2023-05-10T05:16:39;1.37;;;0.97;;
74196;SDS011;62555;52.678;4.900;2023-05-10T05:19:05;1.13;;;0.93;;
74196;SDS011;62555;52.678;4.900;2023-05-10T05:21:30;1.58;;;1.38;;
74196;SDS011;62555;52.678;4.900;2023-05-10T05:23:57;1.90;;;1.30;;
74196;SDS011;62555;52.678;4.900;2023-05-10T05:26:22;1.70;;;1.30;;
74196;SDS011;62555;52.678;4.900;2023-05-10T05:28:47;1.50;;;1.20;;
74196;SDS011;62555;52.678;4.900;2023-05-10T05:31:13;1.83;;;1.20;;
74196;SDS011;62555;52.678;4.900;2023-05-10T05:33:38;1.27;;;1.10;;
74196;SDS011;62555;52.678;4.900;2023-05-10T05:36:04;1.67;;;1.13;;
74196;SDS011;62555;52.678;4.900;2023-05-10T05:38:30;1.25;;;1.10;;
74196;SDS011;62555;52.678;4.900;2023-05-10T05:40:55;2.33;;;1.60;;
74196;SDS011;62555;52.678;4.900;2023-05-10T05:43:20;1.95;;;1.52;;
74196;SDS011;62555;52.678;4.900;2023-05-10T05:45:46;2.87;;;1.20;;
74196;SDS011;62555;52.678;4.900;2023-05-10T05:48:11;1.33;;;1.23;;
74196;SDS011;62555;52.678;4.900;2023-05-10T05:50:36;1.60;;;1.40;;
74196;SDS011;62555;52.678;4.900;2023-05-10T05:53:01;1.40;;;1.02;;
74196;SDS011;62555;52.678;4.900;2023-05-10T05:55:27;1.67;;;1.55;;
74196;SDS011;62555;52.678;4.900;2023-05-10T05:57:52;1.40;;;1.10;;
74196;SDS011;62555;52.678;4.900;2023-05-10T06:00:17;1.40;;;1.30;;
74196;SDS011;62555;52.678;4.900;2023-05-10T06:02:42;2.08;;;1.65;;
74196;SDS011;62555;52.678;4.900;2023-05-10T06:05:08;1.67;;;1.40;;
74196;SDS011;62555;52.678;4.900;2023-05-10T06:07:33;1.40;;;1.20;;
74196;SDS011;62555;52.678;4.900;2023-05-10T06:09:58;2.07;;;1.80;;
74196;SDS011;62555;52.678;4.900;2023-05-10T06:12:23;1.20;;;1.10;;
74196;SDS011;62555;52.678;4.900;2023-05-10T06:14:49;2.83;;;1.70;;
74196;SDS011;62555;52.678;4.900;2023-05-10T06:17:14;1.35;;;1.13;;
74196;SDS011;62555;52.678;4.900;2023-05-10T06:19:39;1.60;;;1.40;;
74196;SDS011;62555;52.678;4.900;2023-05-10T06:22:04;1.60;;;1.10;;
74196;SDS011;62555;52.678;4.900;2023-05-10T06:24:30;2.00;;;1.38;;
74196;SDS011;62555;52.678;4.900;2023-05-10T06:26:55;2.17;;;1.70;;
74196;SDS011;62555;52.678;4.900;2023-05-10T06:29:20;1.83;;;1.27;;
74196;SDS011;62555;52.678;4.900;2023-05-10T06:31:45;2.07;;;1.63;;
74196;SDS011;62555;52.678;4.900;2023-05-10T06:34:11;2.38;;;1.70;;
74196;SDS011;62555;52.678;4.900;2023-05-10T06:36:36;2.92;;;1.70;;
74196;SDS011;62555;52.678;4.900;2023-05-10T06:39:01;1.50;;;1.40;;
74196;SDS011;62555;52.678;4.900;2023-05-10T06:41:27;1.87;;;1.60;;
74196;SDS011;62555;52.678;4.900;2023-05-10T06:43:52;2.43;;;1.40;;
74196;SDS011;62555;52.678;4.900;2023-05-10T06:46:17;1.80;;;1.40;;
74196;SDS011;62555;52.678;4.900;2023-05-10T06:48:42;1.90;;;1.67;;
74196;SDS011;62555;52.678;4.900;2023-05-10T06:51:07;2.33;;;2.00;;
74196;SDS011;62555;52.678;4.900;2023-05-10T06:53:32;1.73;;;1.40;;
74196;SDS011;62555;52.678;4.900;2023-05-10T06:55:58;1.97;;;1.67;;
74196;SDS011;62555;52.678;4.900;2023-05-10T06:58:23;2.77;;;1.67;;
74196;SDS011;62555;52.678;4.900;2023-05-10T07:00:48;1.67;;;1.53;;
74196;SDS011;62555;52.678;4.900;2023-05-10T07:03:13;1.60;;;1.33;;
74196;SDS011;62555;52.678;4.900;2023-05-10T07:05:38;2.47;;;1.60;;
74196;SDS011;62555;52.678;4.900;2023-05-10T07:08:03;2.13;;;1.83;;
74196;SDS011;62555;52.678;4.900;2023-05-10T07:10:29;2.27;;;1.83;;
74196;SDS011;62555;52.678;4.900;2023-05-10T07:12:54;2.00;;;1.70;;
74196;SDS011;62555;52.678;4.900;2023-05-10T07:15:20;2.03;;;1.83;;
74196;SDS011;62555;52.678;4.900;2023-05-10T07:17:45;1.88;;;1.38;;
74196;SDS011;62555;52.678;4.900;2023-05-10T07:20:10;1.97;;;1.50;;
74196;SDS011;62555;52.678;4.900;2023-05-10T07:22:36;2.88;;;1.65;;
74196;SDS011;62555;52.678;4.900;2023-05-10T07:25:01;2.10;;;1.70;;
74196;SDS011;62555;52.678;4.900;2023-05-10T07:27:27;2.35;;;1.77;;
74196;SDS011;62555;52.678;4.900;2023-05-10T07:29:52;2.57;;;1.93;;
74196;SDS011;62555;52.678;4.900;2023-05-10T07:32:17;2.33;;;1.50;;
74196;SDS011;62555;52.678;4.900;2023-05-10T07:34:42;2.53;;;1.77;;
74196;SDS011;62555;52.678;4.900;2023-05-10T07:37:07;2.30;;;1.63;;
74196;SDS011;62555;52.678;4.900;2023-05-10T07:39:33;2.00;;;1.63;;
74196;SDS011;62555;52.678;4.900;2023-05-10T07:41:58;2.07;;;1.80;;
74196;SDS011;62555;52.678;4.900;2023-05-10T07:44:23;3.27;;;2.00;;
74196;SDS011;62555;52.678;4.900;2023-05-10T07:46:48;2.25;;;1.90;;
74196;SDS011;62555;52.678;4.900;2023-05-10T07:49:14;2.10;;;1.63;;
74196;SDS011;62555;52.678;4.900;2023-05-10T07:51:39;2.60;;;2.40;;
74196;SDS011;62555;52.678;4.900;2023-05-10T07:54:04;2.25;;;1.85;;
74196;SDS011;62555;52.678;4.900;2023-05-10T07:56:30;2.70;;;2.10;;
74196;SDS011;62555;52.678;4.900;2023-05-10T07:58:56;2.55;;;2.08;;
74196;SDS011;62555;52.678;4.900;2023-05-10T08:01:22;2.92;;;2.72;;
74196;SDS011;62555;52.678;4.900;2023-05-10T08:03:48;3.08;;;2.40;;
74196;SDS011;62555;52.678;4.900;2023-05-10T08:06:14;2.88;;;2.17;;
74196;SDS011;62555;52.678;4.900;2023-05-10T08:08:39;2.15;;;1.95;;
74196;SDS011;62555;52.678;4.900;2023-05-10T08:11:04;2.72;;;2.38;;
74196;SDS011;62555;52.678;4.900;2023-05-10T08:13:30;2.67;;;2.30;;
74196;SDS011;62555;52.678;4.900;2023-05-10T08:15:56;4.55;;;2.35;;
74196;SDS011;62555;52.678;4.900;2023-05-10T08:18:21;2.83;;;1.92;;
74196;SDS011;62555;52.678;4.900;2023-05-10T08:20:46;3.07;;;2.20;;
74196;SDS011;62555;52.678;4.900;2023-05-10T08:23:12;2.67;;;1.93;;
74196;SDS011;62555;52.678;4.900;2023-05-10T08:25:37;2.88;;;2.13;;
74196;SDS011;62555;52.678;4.900;2023-05-10T08:28:02;1.97;;;1.83;;
74196;SDS011;62555;52.678;4.900;2023-05-10T08:30:27;2.40;;;2.10;;
74196;SDS011;62555;52.678;4.900;2023-05-10T08:32:52;3.87;;;2.10;;
74196;SDS011;62555;52.678;4.900;2023-05-10T08:35:18;3.43;;;2.83;;
74196;SDS011;62555;52.678;4.900;2023-05-10T08:37:43;3.83;;;2.63;;
74196;SDS011;62555;52.678;4.900;2023-05-10T08:40:08;4.38;;;3.20;;
74196;SDS011;62555;52.678;4.900;2023-05-10T08:42:35;9.57;;;4.55;;
74196;SDS011;62555;52.678;4.900;2023-05-10T08:45:01;6.18;;;3.50;;
74196;SDS011;62555;52.678;4.900;2023-05-10T08:47:27;4.07;;;2.58;;
74196;SDS011;62555;52.678;4.900;2023-05-10T08:49:52;5.47;;;3.47;;
74196;SDS011;62555;52.678;4.900;2023-05-10T08:52:19;3.53;;;2.83;;
74196;SDS011;62555;52.678;4.900;2023-05-10T08:54:44;3.03;;;2.50;;
74196;SDS011;62555;52.678;4.900;2023-05-10T08:57:10;5.50;;;2.70;;
74196;SDS011;62555;52.678;4.900;2023-05-10T08:59:35;2.80;;;2.30;;
74196;SDS011;62555;52.678;4.900;2023-05-10T09:02:03;2.42;;;2.22;;
74196;SDS011;62555;52.678;4.900;2023-05-10T09:04:29;3.00;;;2.55;;
74196;SDS011;62555;52.678;4.900;2023-05-10T09:06:54;3.80;;;2.25;;
74196;SDS011;62555;52.678;4.900;2023-05-10T09:09:20;3.65;;;2.33;;
74196;SDS011;62555;52.678;4.900;2023-05-10T09:11:46;2.70;;;2.40;;
74196;SDS011;62555;52.678;4.900;2023-05-10T09:14:11;2.80;;;2.27;;
74196;SDS011;62555;52.678;4.900;2023-05-10T09:16:37;4.93;;;3.67;;
74196;SDS011;62555;52.678;4.900;2023-05-10T09:19:02;8.83;;;3.83;;
74196;SDS011;62555;52.678;4.900;2023-05-10T09:21:27;4.80;;;3.10;;
74196;SDS011;62555;52.678;4.900;2023-05-10T09:23:52;5.00;;;4.00;;
74196;SDS011;62555;52.678;4.900;2023-05-10T09:26:21;8.60;;;6.00;;
74196;SDS011;62555;52.678;4.900;2023-05-10T09:28:50;9.35;;;5.20;;
74196;SDS011;62555;52.678;4.900;2023-05-10T09:31:16;6.82;;;3.55;;
74196;SDS011;62555;52.678;4.900;2023-05-10T09:33:45;7.27;;;4.93;;
74196;SDS011;62555;52.678;4.900;2023-05-10T09:36:11;6.28;;;4.78;;
74196;SDS011;62555;52.678;4.900;2023-05-10T09:38:49;5.25;;;4.45;;
74196;SDS011;62555;52.678;4.900;2023-05-10T09:41:17;5.70;;;3.95;;
74196;SDS011;62555;52.678;4.900;2023-05-10T09:43:43;5.35;;;3.75;;
74196;SDS011;62555;52.678;4.900;2023-05-10T09:46:09;4.77;;;3.47;;
74196;SDS011;62555;52.678;4.900;2023-05-10T09:48:34;6.68;;;3.53;;
74196;SDS011;62555;52.678;4.900;2023-05-10T09:51:05;7.00;;;4.30;;
74196;SDS011;62555;52.678;4.900;2023-05-10T09:53:30;6.22;;;4.20;;
74196;SDS011;62555;52.678;4.900;2023-05-10T09:55:56;4.68;;;3.65;;
74196;SDS011;62555;52.678;4.900;2023-05-10T09:58:21;4.40;;;4.00;;
74196;SDS011;62555;52.678;4.900;2023-05-10T10:00:46;5.33;;;3.27;;
74196;SDS011;62555;52.678;4.900;2023-05-10T10:03:13;5.20;;;3.83;;
74196;SDS011;62555;52.678;4.900;2023-05-10T10:05:39;4.43;;;3.65;;
74196;SDS011;62555;52.678;4.900;2023-05-10T10:08:05;6.43;;;4.40;;
74196;SDS011;62555;52.678;4.900;2023-05-10T10:10:31;5.00;;;4.03;;
74196;SDS011;62555;52.678;4.900;2023-05-10T10:12:57;5.95;;;4.75;;
74196;SDS011;62555;52.678;4.900;2023-05-10T10:15:23;10.48;;;4.82;;
74196;SDS011;62555;52.678;4.900;2023-05-10T10:17:48;7.53;;;5.30;;
74196;SDS011;62555;52.678;4.900;2023-05-10T10:20:14;12.55;;;5.07;;
74196;SDS011;62555;52.678;4.900;2023-05-10T10:22:40;9.20;;;4.40;;
74196;SDS011;62555;52.678;4.900;2023-05-10T10:25:05;9.73;;;5.40;;
74196;SDS011;62555;52.678;4.900;2023-05-10T10:27:36;11.35;;;6.22;;
74196;SDS011;62555;52.678;4.900;2023-05-10T10:30:13;10.88;;;5.70;;
74196;SDS011;62555;52.678;4.900;2023-05-10T10:35:17;6.07;;;3.75;;
74196;SDS011;62555;52.678;4.900;2023-05-10T10:37:43;4.70;;;3.55;;
74196;SDS011;62555;52.678;4.900;2023-05-10T10:40:42;4.88;;;3.30;;
74196;SDS011;62555;52.678;4.900;2023-05-10T10:45:47;5.25;;;3.85;;
74196;SDS011;62555;52.678;4.900;2023-05-10T10:48:22;11.50;;;5.28;;
74196;SDS011;62555;52.678;4.900;2023-05-10T10:50:53;5.57;;;4.03;;
74196;SDS011;62555;52.678;4.900;2023-05-10T10:53:20;5.47;;;3.90;;
74196;SDS011;62555;52.678;4.900;2023-05-10T10:55:46;4.20;;;3.40;;
74196;SDS011;62555;52.678;4.900;2023-05-10T10:58:12;5.22;;;3.47;;
74196;SDS011;62555;52.678;4.900;2023-05-10T11:00:53;3.60;;;3.25;;
74196;SDS011;62555;52.678;4.900;2023-05-10T11:03:33;4.00;;;3.13;;
74196;SDS011;62555;52.678;4.900;2023-05-10T11:05:58;3.10;;;2.73;;
74196;SDS011;62555;52.678;4.900;2023-05-10T11:08:27;3.33;;;3.00;;
74196;SDS011;62555;52.678;4.900;2023-05-10T11:14:06;5.70;;;3.47;;
74196;SDS011;62555;52.678;4.900;2023-05-10T11:16:18;4.22;;;3.42;;
74196;SDS011;62555;52.678;4.900;2023-05-10T11:19:01;4.45;;;3.20;;
74196;SDS011;62555;52.678;4.900;2023-05-10T11:21:27;5.88;;;3.63;;
74196;SDS011;62555;52.678;4.900;2023-05-10T11:23:53;3.90;;;3.25;;
74196;SDS011;62555;52.678;4.900;2023-05-10T11:26:22;4.22;;;3.17;;
74196;SDS011;62555;52.678;4.900;2023-05-10T11:28:51;5.70;;;3.30;;
74196;SDS011;62555;52.678;4.900;2023-05-10T11:31:17;3.22;;;2.92;;
74196;SDS011;62555;52.678;4.900;2023-05-10T11:33:43;3.63;;;3.15;;
74196;SDS011;62555;52.678;4.900;2023-05-10T11:36:13;4.10;;;3.33;;
74196;SDS011;62555;52.678;4.900;2023-05-10T11:38:39;4.43;;;4.03;;
74196;SDS011;62555;52.678;4.900;2023-05-10T11:41:04;5.32;;;3.20;;
74196;SDS011;62555;52.678;4.900;2023-05-10T11:43:29;5.13;;;3.60;;
74196;SDS011;62555;52.678;4.900;2023-05-10T11:45:55;6.13;;;3.58;;
74196;SDS011;62555;52.678;4.900;2023-05-10T11:48:20;5.47;;;3.87;;
74196;SDS011;62555;52.678;4.900;2023-05-10T11:50:48;4.40;;;3.58;;
74196;SDS011;62555;52.678;4.900;2023-05-10T11:53:13;5.03;;;3.47;;
74196;SDS011;62555;52.678;4.900;2023-05-10T11:55:39;4.83;;;3.20;;
74196;SDS011;62555;52.678;4.900;2023-05-10T11:58:04;3.65;;;3.08;;
74196;SDS011;62555;52.678;4.900;2023-05-10T12:00:30;6.38;;;3.42;;
74196;SDS011;62555;52.678;4.900;2023-05-10T12:02:55;4.68;;;3.30;;
74196;SDS011;62555;52.678;4.900;2023-05-10T12:05:20;7.83;;;3.77;;
74196;SDS011;62555;52.678;4.900;2023-05-10T12:07:45;7.23;;;3.97;;
74196;SDS011;62555;52.678;4.900;2023-05-10T12:10:11;3.83;;;3.17;;
74196;SDS011;62555;52.678;4.900;2023-05-10T12:12:43;3.75;;;2.85;;
74196;SDS011;62555;52.678;4.900;2023-05-10T12:15:18;3.40;;;3.10;;
74196;SDS011;62555;52.678;4.900;2023-05-10T12:17:47;4.18;;;3.22;;
74196;SDS011;62555;52.678;4.900;2023-05-10T12:22:50;6.15;;;3.60;;
74196;SDS011;62555;52.678;4.900;2023-05-10T12:25:20;5.50;;;3.33;;
74196;SDS011;62555;52.678;4.900;2023-05-10T12:27:53;3.92;;;3.00;;
74196;SDS011;62555;52.678;4.900;2023-05-10T12:30:19;6.47;;;3.17;;
74196;SDS011;62555;52.678;4.900;2023-05-10T12:32:44;5.30;;;3.10;;
74196;SDS011;62555;52.678;4.900;2023-05-10T12:35:10;4.67;;;2.90;;
74196;SDS011;62555;52.678;4.900;2023-05-10T12:37:35;4.97;;;3.30;;
74196;SDS011;62555;52.678;4.900;2023-05-10T12:40:05;5.18;;;3.17;;
74196;SDS011;62555;52.678;4.900;2023-05-10T12:42:30;4.55;;;3.58;;
74196;SDS011;62555;52.678;4.900;2023-05-10T12:44:56;4.15;;;2.55;;
74196;SDS011;62555;52.678;4.900;2023-05-10T12:47:22;4.60;;;2.47;;
74196;SDS011;62555;52.678;4.900;2023-05-10T12:49:47;4.83;;;3.20;;
74196;SDS011;62555;52.678;4.900;2023-05-10T12:52:12;5.85;;;2.75;;
74196;SDS011;62555;52.678;4.900;2023-05-10T12:54:37;4.40;;;3.00;;
74196;SDS011;62555;52.678;4.900;2023-05-10T12:57:02;4.43;;;3.13;;
74196;SDS011;62555;52.678;4.900;2023-05-10T12:59:27;5.37;;;3.23;;
74196;SDS011;62555;52.678;4.900;2023-05-10T13:01:53;3.70;;;3.00;;
74196;SDS011;62555;52.678;4.900;2023-05-10T13:04:18;4.67;;;2.70;;
74196;SDS011;62555;52.678;4.900;2023-05-10T13:06:43;3.90;;;2.90;;
74196;SDS011;62555;52.678;4.900;2023-05-10T13:09:08;4.17;;;3.10;;
74196;SDS011;62555;52.678;4.900;2023-05-10T13:11:33;4.00;;;2.90;;
74196;SDS011;62555;52.678;4.900;2023-05-10T13:13:59;3.33;;;2.90;;
74196;SDS011;62555;52.678;4.900;2023-05-10T13:16:24;3.07;;;2.77;;
74196;SDS011;62555;52.678;4.900;2023-05-10T13:18:49;4.70;;;3.10;;
74196;SDS011;62555;52.678;4.900;2023-05-10T13:21:14;5.43;;;3.08;;
74196;SDS011;62555;52.678;4.900;2023-05-10T13:23:40;3.17;;;2.88;;
74196;SDS011;62555;52.678;4.900;2023-05-10T13:26:05;3.95;;;3.08;;
74196;SDS011;62555;52.678;4.900;2023-05-10T13:28:30;4.63;;;2.73;;
74196;SDS011;62555;52.678;4.900;2023-05-10T13:30:55;3.08;;;2.65;;
74196;SDS011;62555;52.678;4.900;2023-05-10T13:33:20;3.83;;;2.70;;
74196;SDS011;62555;52.678;4.900;2023-05-10T13:35:46;3.87;;;2.63;;
74196;SDS011;62555;52.678;4.900;2023-05-10T13:38:11;2.33;;;2.13;;
74196;SDS011;62555;52.678;4.900;2023-05-10T13:40:36;3.35;;;2.55;;
74196;SDS011;62555;52.678;4.900;2023-05-10T13:43:01;3.17;;;2.70;;
74196;SDS011;62555;52.678;4.900;2023-05-10T13:45:27;3.00;;;2.63;;
74196;SDS011;62555;52.678;4.900;2023-05-10T13:47:52;2.67;;;2.47;;
74196;SDS011;62555;52.678;4.900;2023-05-10T13:50:17;3.37;;;2.40;;
74196;SDS011;62555;52.678;4.900;2023-05-10T13:52:43;3.10;;;2.80;;
74196;SDS011;62555;52.678;4.900;2023-05-10T13:55:08;3.80;;;2.57;;
74196;SDS011;62555;52.678;4.900;2023-05-10T13:57:33;2.40;;;2.00;;
74196;SDS011;62555;52.678;4.900;2023-05-10T14:00:00;2.65;;;2.40;;
74196;SDS011;62555;52.678;4.900;2023-05-10T14:02:25;3.13;;;2.60;;
74196;SDS011;62555;52.678;4.900;2023-05-10T14:04:52;2.40;;;2.20;;
74196;SDS011;62555;52.678;4.900;2023-05-10T14:07:17;2.70;;;2.10;;
74196;SDS011;62555;52.678;4.900;2023-05-10T14:09:42;2.70;;;2.00;;
74196;SDS011;62555;52.678;4.900;2023-05-10T14:12:07;3.17;;;2.23;;
74196;SDS011;62555;52.678;4.900;2023-05-10T14:14:33;2.33;;;2.13;;
74196;SDS011;62555;52.678;4.900;2023-05-10T14:16:58;2.63;;;2.40;;
74196;SDS011;62555;52.678;4.900;2023-05-10T14:19:24;2.42;;;2.22;;
74196;SDS011;62555;52.678;4.900;2023-05-10T14:21:49;2.90;;;2.43;;
74196;SDS011;62555;52.678;4.900;2023-05-10T14:24:14;2.45;;;2.22;;
74196;SDS011;62555;52.678;4.900;2023-05-10T14:26:39;3.08;;;2.30;;
74196;SDS011;62555;52.678;4.900;2023-05-10T14:29:05;2.40;;;2.20;;
74196;SDS011;62555;52.678;4.900;2023-05-10T14:31:30;2.17;;;1.97;;
74196;SDS011;62555;52.678;4.900;2023-05-10T14:33:55;2.40;;;2.20;;
74196;SDS011;62555;52.678;4.900;2023-05-10T14:36:20;2.50;;;2.10;;
74196;SDS011;62555;52.678;4.900;2023-05-10T14:38:46;2.83;;;2.10;;
74196;SDS011;62555;52.678;4.900;2023-05-10T14:41:11;2.65;;;2.13;;
74196;SDS011;62555;52.678;4.900;2023-05-10T14:43:40;3.08;;;2.13;;
74196;SDS011;62555;52.678;4.900;2023-05-10T14:46:06;4.22;;;2.35;;
74196;SDS011;62555;52.678;4.900;2023-05-10T14:48:31;3.73;;;2.17;;
74196;SDS011;62555;52.678;4.900;2023-05-10T14:50:56;2.90;;;2.10;;
74196;SDS011;62555;52.678;4.900;2023-05-10T14:53:21;2.13;;;1.97;;
74196;SDS011;62555;52.678;4.900;2023-05-10T14:55:46;2.03;;;1.83;;
74196;SDS011;62555;52.678;4.900;2023-05-10T14:58:12;3.00;;;2.20;;
74196;SDS011;62555;52.678;4.900;2023-05-10T15:00:37;2.50;;;1.90;;
74196;SDS011;62555;52.678;4.900;2023-05-10T15:03:02;2.30;;;1.87;;
74196;SDS011;62555;52.678;4.900;2023-05-10T15:05:28;2.10;;;1.90;;
74196;SDS011;62555;52.678;4.900;2023-05-10T15:07:53;2.05;;;1.85;;